Terminal Aerodrome Forecast
Issued by NWS

Home | Current Version | Previous Version | Text Only | Print | Product List | Glossary On
Versions: 1 2 3 4 5 6 7 8 9 10 11 12 13 14 15 16 17 18 19 20 21 22 23 24 25 26 27 28 29 30 31 32 33 34 35 36
787
FTUS43 KPAH 261207 AAA
TAFOWB
TAF AMD
KOWB 261207Z 2612/2712 32013G22KT P6SM FEW026
     FM261400 31018G29KT P6SM SKC
     FM262300 30010KT P6SM SKC
     FM270200 29003KT P6SM SKC
     FM270800 00000KT P6SM BKN100=

USA.gov is the U.S. government's official web portal to all federal, state and local government web resources and services.